createdAt,value
2023-02-12T00:01:16.366Z,57.33
2023-02-12T00:03:43.712Z,53.57
2023-02-12T00:06:12.487Z,59.10
2023-02-12T00:08:41.051Z,52.00
2023-02-12T00:11:09.522Z,58.93
2023-02-12T00:13:36.783Z,51.60
2023-02-12T00:16:08.157Z,56.53
2023-02-12T00:18:35.512Z,58.37
2023-02-12T00:21:04.669Z,60.30
2023-02-12T00:23:31.866Z,54.67
2023-02-12T00:25:58.988Z,56.00
2023-02-12T00:28:26.361Z,58.97
2023-02-12T00:30:53.678Z,58.50
2023-02-12T00:33:20.866Z,52.60
2023-02-12T00:35:56.136Z,59.20
2023-02-12T00:38:23.540Z,57.37
2023-02-12T00:40:50.815Z,56.40
2023-02-12T00:43:17.963Z,53.80
2023-02-12T00:45:45.849Z,56.93
2023-02-12T00:48:13.642Z,53.07
2023-02-12T00:50:43.613Z,56.00
2023-02-12T00:53:10.743Z,57.90
2023-02-12T00:55:37.894Z,57.60
2023-02-12T00:58:05.036Z,59.70
2023-02-12T01:00:32.229Z,56.93
2023-02-12T01:02:59.352Z,58.07
2023-02-12T01:05:26.604Z,63.00
2023-02-12T01:07:54.563Z,54.57
2023-02-12T01:10:22.036Z,56.30
2023-02-12T01:12:49.392Z,59.27
2023-02-12T01:15:16.997Z,57.83
2023-02-12T01:17:44.474Z,60.73
2023-02-12T01:20:14.160Z,57.67
2023-02-12T01:22:41.314Z,59.17
2023-02-12T01:25:08.708Z,55.37
2023-02-12T01:27:36.271Z,60.27
2023-02-12T01:30:03.795Z,59.57
2023-02-12T01:32:30.961Z,57.17
2023-02-12T01:34:58.104Z,56.90
2023-02-12T01:37:25.201Z,61.10
2023-02-12T01:39:52.375Z,60.27
2023-02-12T01:42:19.717Z,60.03
2023-02-12T01:45:06.828Z,60.83
2023-02-12T01:47:33.943Z,61.97
2023-02-12T01:50:01.095Z,54.60
2023-02-12T01:52:30.759Z,56.57
2023-02-12T01:55:00.584Z,61.70
2023-02-12T01:57:29.314Z,59.17
2023-02-12T01:59:57.276Z,57.37
2023-02-12T02:02:24.740Z,58.10
2023-02-12T02:04:54.661Z,57.77
2023-02-12T02:07:21.802Z,59.17
2023-02-12T02:09:49.187Z,62.20
2023-02-12T02:12:35.194Z,62.97
2023-02-12T02:15:02.974Z,58.50
2023-02-12T02:17:45.353Z,64.80
2023-02-12T02:20:24.436Z,63.40
2023-02-12T02:23:08.768Z,58.47
2023-02-12T02:25:55.006Z,58.60
2023-02-12T02:28:22.330Z,55.97
2023-02-12T02:30:56.255Z,60.27
2023-02-12T02:33:33.097Z,62.77
2023-02-12T02:36:18.354Z,54.87
2023-02-12T02:38:51.176Z,52.67
2023-02-12T02:41:40.654Z,57.33
2023-02-12T02:44:11.484Z,52.13
2023-02-12T02:46:59.093Z,60.70
2023-02-12T02:49:28.319Z,58.97
2023-02-12T02:52:17.112Z,59.07
2023-02-12T02:54:46.491Z,60.87
2023-02-12T02:57:18.480Z,63.20
2023-02-12T02:59:49.077Z,62.33
2023-02-12T03:02:18.960Z,68.03
2023-02-12T03:05:06.312Z,63.70
2023-02-12T03:07:38.392Z,66.17
2023-02-12T03:10:05.567Z,64.43
2023-02-12T03:12:37.685Z,63.87
2023-02-12T03:15:13.797Z,68.40
2023-02-12T03:17:46.016Z,65.47
2023-02-12T03:20:16.460Z,63.57
2023-02-12T03:22:48.195Z,70.17
2023-02-12T03:25:22.230Z,67.63
2023-02-12T03:28:00.207Z,68.80
2023-02-12T03:30:33.495Z,62.37
2023-02-12T03:33:17.066Z,69.33
2023-02-12T03:36:07.176Z,67.07
2023-02-12T03:38:47.645Z,70.20
2023-02-12T03:41:14.745Z,74.17
2023-02-12T03:43:41.834Z,65.17
2023-02-12T03:46:15.987Z,78.20
2023-02-12T03:48:43.100Z,71.83
2023-02-12T03:51:25.037Z,74.67
2023-02-12T03:53:52.424Z,76.97
2023-02-12T03:56:25.160Z,75.47
2023-02-12T03:58:52.352Z,68.00
2023-02-12T04:01:19.580Z,64.67
2023-02-12T04:03:47.017Z,73.80
2023-02-12T04:06:40.422Z,75.67
2023-02-12T04:09:09.358Z,71.97
2023-02-12T04:11:53.797Z,73.67
2023-02-12T04:14:23.939Z,71.63
2023-02-12T04:16:51.277Z,71.33
2023-02-12T04:19:25.160Z,68.90
2023-02-12T04:21:58.312Z,71.30
2023-02-12T04:24:28.160Z,72.27
2023-02-12T04:26:55.219Z,71.97
2023-02-12T04:29:27.423Z,72.93
2023-02-12T04:32:26.865Z,65.77
2023-02-12T04:34:53.957Z,61.30
2023-02-12T04:37:35.585Z,63.33
2023-02-12T04:40:04.849Z,59.03
2023-02-12T04:42:31.952Z,61.40
2023-02-12T04:44:59.382Z,66.10
2023-02-12T04:47:26.733Z,65.07
2023-02-12T04:49:53.889Z,69.53
2023-02-12T04:52:21.011Z,71.43
2023-02-12T04:54:48.127Z,77.93
2023-02-12T04:57:15.256Z,78.47
2023-02-12T04:59:42.372Z,86.20
2023-02-12T05:02:09.526Z,94.97
2023-02-12T05:04:36.654Z,85.03
2023-02-12T05:07:03.781Z,85.77
2023-02-12T05:09:30.870Z,78.83
2023-02-12T05:11:58.000Z,77.77
2023-02-12T05:14:25.937Z,88.07
2023-02-12T05:16:53.062Z,86.07
2023-02-12T05:19:20.153Z,90.07
2023-02-12T05:21:47.354Z,87.17
2023-02-12T05:24:14.496Z,85.40
2023-02-12T05:26:41.830Z,91.53
2023-02-12T05:29:08.975Z,79.43
2023-02-12T05:31:36.347Z,86.40
2023-02-12T05:34:03.566Z,92.50
2023-02-12T05:36:30.728Z,82.50
2023-02-12T05:38:58.856Z,87.53
2023-02-12T05:41:26.433Z,93.13
2023-02-12T05:43:54.011Z,88.53
2023-02-12T05:46:22.006Z,91.30
2023-02-12T05:48:49.205Z,95.40
2023-02-12T05:51:18.018Z,104.33
2023-02-12T05:53:45.096Z,98.30
2023-02-12T05:56:23.391Z,92.80
2023-02-12T05:58:57.967Z,91.90
2023-02-12T06:01:27.039Z,94.63
2023-02-12T06:03:54.313Z,99.80
2023-02-12T06:06:21.517Z,93.90
2023-02-12T06:08:49.727Z,96.90
2023-02-12T06:11:17.618Z,90.77
2023-02-12T06:13:45.161Z,96.73
2023-02-12T06:16:17.365Z,85.30
2023-02-12T06:18:44.493Z,88.07
2023-02-12T06:21:11.594Z,84.43
2023-02-12T06:23:38.774Z,81.73
2023-02-12T06:26:05.883Z,85.60
2023-02-12T06:28:33.050Z,84.63
2023-02-12T06:31:00.246Z,82.63
2023-02-12T06:33:27.546Z,80.00
2023-02-12T06:35:54.880Z,84.67
2023-02-12T06:38:22.232Z,81.73
2023-02-12T06:40:49.404Z,86.23
2023-02-12T06:43:16.529Z,74.23
2023-02-12T06:45:43.686Z,75.73
2023-02-12T06:48:10.792Z,73.97
2023-02-12T06:50:37.925Z,69.47
2023-02-12T06:53:05.075Z,75.27
2023-02-12T06:55:32.160Z,71.03
2023-02-12T06:57:59.257Z,74.57
2023-02-12T07:00:26.389Z,78.50
2023-02-12T07:02:56.909Z,70.03
2023-02-12T07:05:24.400Z,71.63
2023-02-12T07:07:51.580Z,63.57
2023-02-12T07:10:19.569Z,66.70
2023-02-12T07:12:46.690Z,67.53
2023-02-12T07:15:14.860Z,67.20
2023-02-12T07:17:42.041Z,65.90
2023-02-12T07:20:09.379Z,63.03
2023-02-12T07:22:37.297Z,63.90
2023-02-12T07:25:04.527Z,65.37
2023-02-12T07:27:31.649Z,58.97
2023-02-12T07:29:58.801Z,59.67
2023-02-12T07:32:25.936Z,62.30
2023-02-12T07:34:53.053Z,60.17
2023-02-12T07:37:22.720Z,56.07
2023-02-12T07:39:50.215Z,64.33
2023-02-12T07:42:17.828Z,58.87
2023-02-12T07:44:45.853Z,61.53
2023-02-12T07:47:12.953Z,59.17
2023-02-12T07:49:40.068Z,59.73
2023-02-12T07:52:07.642Z,58.27
2023-02-12T07:54:34.760Z,57.43
2023-02-12T07:57:01.930Z,57.50
2023-02-12T07:59:29.110Z,65.30
2023-02-12T08:01:56.437Z,59.67
2023-02-12T08:04:25.130Z,56.83
2023-02-12T08:06:54.105Z,57.33
2023-02-12T08:09:26.567Z,63.20
2023-02-12T08:11:54.162Z,60.27
2023-02-12T08:14:22.387Z,56.57
2023-02-12T08:16:50.177Z,57.50
2023-02-12T08:19:21.713Z,61.07
2023-02-12T08:21:52.252Z,57.93
2023-02-12T08:24:19.650Z,59.27
2023-02-12T08:26:46.888Z,59.63
2023-02-12T08:29:15.789Z,56.43
2023-02-12T08:31:44.824Z,54.13
2023-02-12T08:34:19.414Z,53.40
2023-02-12T08:36:47.081Z,63.67
2023-02-12T08:39:16.498Z,59.13
2023-02-12T08:41:43.780Z,58.97
2023-02-12T08:44:11.227Z,61.83
2023-02-12T08:46:39.728Z,57.23
2023-02-12T08:49:12.760Z,60.17
2023-02-12T08:51:42.461Z,54.90
2023-02-12T08:54:11.579Z,55.60
2023-02-12T08:56:38.708Z,53.20
2023-02-12T08:59:07.334Z,51.20
2023-02-12T09:01:35.645Z,52.20
2023-02-12T09:04:02.842Z,56.20
2023-02-12T09:06:32.122Z,58.10
2023-02-12T09:08:59.342Z,60.17
2023-02-12T09:11:30.722Z,53.80
2023-02-12T09:14:08.027Z,53.20
2023-02-12T09:16:36.889Z,54.17
2023-02-12T09:19:04.802Z,56.50
2023-02-12T09:21:32.135Z,58.37
2023-02-12T09:23:59.417Z,54.60
2023-02-12T09:26:26.599Z,62.70
2023-02-12T09:28:54.482Z,57.77
2023-02-12T09:31:26.609Z,56.70
2023-02-12T09:33:55.351Z,59.23
2023-02-12T09:36:22.742Z,60.43
2023-02-12T09:38:50.162Z,64.67
2023-02-12T09:41:17.329Z,63.77
2023-02-12T09:43:44.473Z,67.30
2023-02-12T09:46:11.581Z,59.87
2023-02-12T09:48:41.492Z,64.93
2023-02-12T09:51:09.826Z,64.93
2023-02-12T09:53:45.860Z,64.63
2023-02-12T09:56:18.551Z,69.93
2023-02-12T09:58:57.790Z,75.00
2023-02-12T10:01:25.311Z,68.17
2023-02-12T10:03:52.964Z,65.03
2023-02-12T10:06:42.325Z,70.53
2023-02-12T10:09:12.288Z,61.90
2023-02-12T10:11:42.209Z,66.60
2023-02-12T10:14:28.133Z,67.30
2023-02-12T10:17:01.409Z,66.57
2023-02-12T10:19:43.631Z,66.87
2023-02-12T10:22:10.700Z,69.70
2023-02-12T10:24:40.584Z,59.17
2023-02-12T10:27:18.460Z,59.53
2023-02-12T10:29:46.572Z,62.47
2023-02-12T10:32:34.623Z,61.90
2023-02-12T10:35:02.188Z,70.83
2023-02-12T10:37:29.338Z,58.30
2023-02-12T10:39:58.923Z,62.87
2023-02-12T10:42:26.027Z,52.17
2023-02-12T10:44:53.198Z,58.20
2023-02-12T10:47:24.680Z,58.13
2023-02-12T10:49:58.756Z,55.60
2023-02-12T10:52:25.921Z,50.47
2023-02-12T10:54:53.124Z,51.43
2023-02-12T10:57:22.199Z,56.33
2023-02-12T10:59:51.024Z,56.93
2023-02-12T11:02:23.476Z,51.13
2023-02-12T11:04:51.381Z,50.93
2023-02-12T11:07:18.853Z,52.60
2023-02-12T11:09:46.933Z,51.73
2023-02-12T11:12:35.914Z,49.30
2023-02-12T11:15:23.481Z,51.20
2023-02-12T11:17:58.489Z,53.92
2023-02-12T11:20:30.892Z,46.70
2023-02-12T11:23:02.103Z,52.00
2023-02-12T11:25:31.782Z,49.50
2023-02-12T11:28:14.347Z,48.27
2023-02-12T11:30:51.768Z,46.87
2023-02-12T11:33:35.692Z,41.93
2023-02-12T11:36:08.490Z,44.47
2023-02-12T11:38:38.155Z,47.17
2023-02-12T11:41:08.529Z,40.40
2023-02-12T11:43:39.541Z,37.97
2023-02-12T11:46:08.783Z,37.37
2023-02-12T11:48:38.480Z,37.93
2023-02-12T11:51:09.078Z,37.13
2023-02-12T11:53:37.945Z,35.50
2023-02-12T11:56:06.645Z,34.67
2023-02-12T11:58:33.894Z,27.80
2023-02-12T12:01:19.186Z,21.90
2023-02-12T12:03:54.465Z,25.10
2023-02-12T12:06:24.640Z,25.93
2023-02-12T12:08:55.036Z,23.63
2023-02-12T12:11:24.912Z,28.92
2023-02-12T12:13:56.930Z,19.55
2023-02-12T12:17:01.600Z,24.45
2023-02-12T12:19:50.077Z,22.05
2023-02-12T12:22:29.123Z,27.83
2023-02-12T12:25:14.845Z,25.35
2023-02-12T12:28:03.757Z,26.85
2023-02-12T12:30:36.910Z,25.40
2023-02-12T12:33:11.237Z,24.02
2023-02-12T12:35:42.758Z,30.98
2023-02-12T12:38:32.459Z,26.77
2023-02-12T12:41:08.654Z,38.17
2023-02-12T12:43:38.653Z,31.63
2023-02-12T12:46:05.801Z,31.80
2023-02-12T12:48:51.833Z,18.77
2023-02-12T12:51:24.973Z,30.77
2023-02-12T12:53:55.154Z,28.87
2023-02-12T12:56:25.268Z,25.47
2023-02-12T12:59:10.942Z,20.67
2023-02-12T13:01:50.043Z,18.77
2023-02-12T13:04:33.310Z,31.13
2023-02-12T13:07:19.961Z,24.80
2023-02-12T13:09:54.330Z,30.10
2023-02-12T13:12:36.398Z,26.27
2023-02-12T13:15:09.264Z,31.43
2023-02-12T13:17:46.026Z,33.40
2023-02-12T13:20:18.330Z,27.80
2023-02-12T13:23:11.817Z,32.30
2023-02-12T13:25:38.917Z,26.37
2023-02-12T13:28:06.750Z,36.73
2023-02-12T13:30:45.919Z,29.77
2023-02-12T13:33:39.499Z,30.93
2023-02-12T13:36:06.947Z,31.60
2023-02-12T13:38:40.149Z,32.20
2023-02-12T13:41:08.542Z,31.20
2023-02-12T13:43:35.914Z,29.23
2023-02-12T13:46:11.189Z,28.80
2023-02-12T13:48:58.817Z,27.37
2023-02-12T13:51:31.986Z,26.37
2023-02-12T13:53:59.171Z,33.97
2023-02-12T13:56:41.102Z,32.40
2023-02-12T13:59:28.457Z,27.60
2023-02-12T14:01:55.656Z,25.63
2023-02-12T14:04:25.590Z,33.23
2023-02-12T14:07:12.691Z,31.83
2023-02-12T14:09:44.796Z,26.20
2023-02-12T14:12:16.810Z,24.23
2023-02-12T14:14:45.737Z,26.47
2023-02-12T14:17:30.966Z,26.80
2023-02-12T14:20:13.096Z,28.20
2023-02-12T14:22:43.854Z,22.87
2023-02-12T14:25:16.967Z,25.07
2023-02-12T14:27:48.987Z,17.03
2023-02-12T14:30:26.239Z,21.97
2023-02-12T14:32:58.058Z,24.47
2023-02-12T14:35:28.047Z,20.27
2023-02-12T14:37:56.312Z,21.90
2023-02-12T14:40:42.731Z,17.23
2023-02-12T14:43:26.385Z,15.23
2023-02-12T14:45:54.126Z,14.77
2023-02-12T14:48:43.354Z,15.90
2023-02-12T14:51:15.585Z,24.77
2023-02-12T14:53:42.804Z,18.37
2023-02-12T14:56:11.121Z,18.37
2023-02-12T14:58:38.499Z,13.60
2023-02-12T15:01:06.642Z,13.47
2023-02-12T15:03:49.596Z,14.57
2023-02-12T15:06:23.518Z,12.30
2023-02-12T15:09:02.802Z,12.27
2023-02-12T15:11:45.428Z,12.63
2023-02-12T15:14:18.407Z,15.43
2023-02-12T15:16:53.058Z,11.60
2023-02-12T15:19:20.162Z,13.67
2023-02-12T15:21:47.349Z,15.30
2023-02-12T15:24:22.369Z,16.60
2023-02-12T15:26:50.657Z,14.27
2023-02-12T15:29:29.973Z,13.53
2023-02-12T15:31:59.117Z,14.13
2023-02-12T15:34:28.729Z,11.13
2023-02-12T15:36:57.383Z,10.77
2023-02-12T15:39:25.122Z,16.00
2023-02-12T15:41:52.382Z,15.27
2023-02-12T15:44:19.458Z,16.17
2023-02-12T15:46:55.642Z,15.73
2023-02-12T15:49:26.639Z,15.70
2023-02-12T15:51:53.773Z,17.13
2023-02-12T15:54:21.225Z,20.50
2023-02-12T15:56:48.495Z,21.17
2023-02-12T15:59:22.931Z,21.77
2023-02-12T16:02:02.327Z,24.10
2023-02-12T16:04:31.024Z,22.37
2023-02-12T16:06:58.946Z,23.77
2023-02-12T16:09:29.267Z,20.87
2023-02-12T16:11:57.997Z,17.10
2023-02-12T16:14:31.436Z,20.87
2023-02-12T16:16:59.702Z,18.10
2023-02-12T16:19:28.112Z,28.37
2023-02-12T16:22:14.884Z,20.23
2023-02-12T16:24:50.024Z,21.40
2023-02-12T16:27:21.823Z,17.53
2023-02-12T16:29:50.819Z,16.97
2023-02-12T16:32:28.372Z,17.83
2023-02-12T16:34:59.791Z,21.13
2023-02-12T16:37:41.306Z,16.47
2023-02-12T16:40:20.133Z,883.60
2023-02-12T16:42:47.219Z,1612.73
2023-02-12T16:45:34.717Z,1025.07
2023-02-12T16:48:10.431Z,87.23
2023-02-12T16:50:39.571Z,21.10
2023-02-12T16:53:08.763Z,594.23
2023-02-12T16:55:36.755Z,298.10
2023-02-12T16:58:03.907Z,24.10
2023-02-12T17:00:31.097Z,22.60
2023-02-12T17:02:58.282Z,20.10
2023-02-12T17:05:25.402Z,20.27
2023-02-12T17:07:52.494Z,18.77
2023-02-12T17:10:19.572Z,20.33
2023-02-12T17:12:55.685Z,19.80
2023-02-12T17:15:29.145Z,21.63
2023-02-12T17:17:56.337Z,19.20
2023-02-12T17:20:23.463Z,20.47
2023-02-12T17:22:54.728Z,20.93
2023-02-12T17:25:21.871Z,22.13
2023-02-12T17:27:48.964Z,22.27
2023-02-12T17:30:18.017Z,24.93
2023-02-12T17:32:45.137Z,25.57
2023-02-12T17:35:12.343Z,23.87
2023-02-12T17:37:39.508Z,24.87
2023-02-12T17:40:07.138Z,28.73
2023-02-12T17:42:34.267Z,27.60
2023-02-12T17:45:01.402Z,26.93
2023-02-12T17:47:28.560Z,26.43
2023-02-12T17:49:56.171Z,26.77
2023-02-12T17:52:23.311Z,25.70
2023-02-12T17:54:50.468Z,24.80
2023-02-12T17:57:18.537Z,25.23
2023-02-12T17:59:45.689Z,22.00
2023-02-12T18:02:13.041Z,23.83
2023-02-12T18:04:40.381Z,21.37
2023-02-12T18:07:07.598Z,21.83
2023-02-12T18:09:34.741Z,23.03
2023-02-12T18:12:01.861Z,22.03
2023-02-12T18:14:29.028Z,24.47
2023-02-12T18:16:56.346Z,22.00
2023-02-12T18:19:23.466Z,24.37
2023-02-12T18:21:50.589Z,24.97
2023-02-12T18:24:17.707Z,25.23
2023-02-12T18:26:44.905Z,25.37
2023-02-12T18:29:12.059Z,24.47
2023-02-12T18:31:39.532Z,25.80
2023-02-12T18:34:08.333Z,23.43
2023-02-12T18:36:35.469Z,25.63
2023-02-12T18:39:02.745Z,26.43
2023-02-12T18:41:31.125Z,26.57
2023-02-12T18:43:58.842Z,27.77
2023-02-12T18:46:27.456Z,25.93
2023-02-12T18:48:55.118Z,28.47
2023-02-12T18:51:23.865Z,28.57
2023-02-12T18:53:54.994Z,28.50
2023-02-12T18:56:22.176Z,31.00
2023-02-12T18:58:49.275Z,31.30
2023-02-12T19:01:17.696Z,31.33
2023-02-12T19:03:45.203Z,33.47
2023-02-12T19:06:12.908Z,34.00
2023-02-12T19:08:40.188Z,33.23
2023-02-12T19:11:08.195Z,34.90
2023-02-12T19:13:35.388Z,37.10
2023-02-12T19:16:13.253Z,35.60
2023-02-12T19:18:40.850Z,34.70
2023-02-12T19:21:08.965Z,40.77
2023-02-12T19:23:36.094Z,34.70
2023-02-12T19:26:10.614Z,35.07
2023-02-12T19:28:41.145Z,37.40
2023-02-12T19:31:12.929Z,42.57
2023-02-12T19:33:41.728Z,40.73
2023-02-12T19:36:10.667Z,38.23
2023-02-12T19:38:38.267Z,42.47
2023-02-12T19:41:06.305Z,40.77
2023-02-12T19:43:33.714Z,45.83
2023-02-12T19:46:03.933Z,37.60
2023-02-12T19:48:31.294Z,31.77
2023-02-12T19:50:58.844Z,34.00
2023-02-12T19:53:26.259Z,37.23
2023-02-12T19:55:53.401Z,40.03
2023-02-12T19:58:20.505Z,38.33
2023-02-12T20:00:47.592Z,36.30
2023-02-12T20:03:14.764Z,36.53
2023-02-12T20:05:46.406Z,35.07
2023-02-12T20:08:14.205Z,40.17
2023-02-12T20:10:41.759Z,39.53
2023-02-12T20:13:09.279Z,38.90
2023-02-12T20:15:37.042Z,41.33
2023-02-12T20:18:08.311Z,39.10
2023-02-12T20:20:35.578Z,39.63
2023-02-12T20:23:02.797Z,40.00
2023-02-12T20:25:30.965Z,43.10
2023-02-12T20:27:58.217Z,38.13
2023-02-12T20:30:25.440Z,38.57
2023-02-12T20:32:52.588Z,39.63
2023-02-12T20:35:19.687Z,34.80
2023-02-12T20:37:46.896Z,39.90
2023-02-12T20:40:14.071Z,36.13
2023-02-12T20:42:41.200Z,38.27
2023-02-12T20:45:08.519Z,39.03
2023-02-12T20:47:35.616Z,35.70
2023-02-12T20:50:02.770Z,36.90
2023-02-12T20:52:30.202Z,37.27
2023-02-12T20:54:57.320Z,33.80
2023-02-12T20:57:24.389Z,38.63
2023-02-12T20:59:51.523Z,35.93
2023-02-12T21:02:18.670Z,37.00
2023-02-12T21:04:45.855Z,36.63
2023-02-12T21:07:12.962Z,34.97
2023-02-12T21:09:40.127Z,34.93
2023-02-12T21:12:07.302Z,35.77
2023-02-12T21:14:34.409Z,33.13
2023-02-12T21:17:01.554Z,39.07
2023-02-12T21:19:28.977Z,34.63
2023-02-12T21:21:56.201Z,40.67
2023-02-12T21:24:24.635Z,40.20
2023-02-12T21:26:52.561Z,40.60
2023-02-12T21:29:20.187Z,43.80
2023-02-12T21:31:48.503Z,38.60
2023-02-12T21:34:17.015Z,38.13
2023-02-12T21:36:45.368Z,43.53
2023-02-12T21:39:14.019Z,40.97
2023-02-12T21:41:41.858Z,42.63
2023-02-12T21:44:11.178Z,41.20
2023-02-12T21:46:38.642Z,41.07
2023-02-12T21:49:06.023Z,41.20
2023-02-12T21:51:34.738Z,38.13
2023-02-12T21:54:03.959Z,38.03
2023-02-12T21:56:31.137Z,40.73
2023-02-12T21:58:58.936Z,43.00
2023-02-12T22:01:27.877Z,38.43
2023-02-12T22:03:55.282Z,41.63
2023-02-12T22:06:23.523Z,40.87
2023-02-12T22:08:50.832Z,39.33
2023-02-12T22:11:18.220Z,41.97
2023-02-12T22:13:45.380Z,42.67
2023-02-12T22:16:14.115Z,38.87
2023-02-12T22:18:41.906Z,41.43
2023-02-12T22:21:12.971Z,44.07
2023-02-12T22:23:40.762Z,44.67
2023-02-12T22:26:09.284Z,44.53
2023-02-12T22:28:40.178Z,46.13
2023-02-12T22:31:08.058Z,44.67
2023-02-12T22:33:35.474Z,46.13
2023-02-12T22:36:06.403Z,46.67
2023-02-12T22:38:37.304Z,47.03
2023-02-12T22:41:05.070Z,41.67
2023-02-12T22:43:32.665Z,44.10
2023-02-12T22:45:59.810Z,44.40
2023-02-12T22:48:28.334Z,45.57
2023-02-12T22:50:56.439Z,48.30
2023-02-12T22:53:23.899Z,49.13
2023-02-12T22:55:51.596Z,46.47
2023-02-12T22:58:18.778Z,50.70
2023-02-12T23:00:45.931Z,52.40
2023-02-12T23:03:13.042Z,50.53
2023-02-12T23:05:40.407Z,53.60
2023-02-12T23:08:07.753Z,46.73
2023-02-12T23:10:34.854Z,52.57
2023-02-12T23:13:02.771Z,44.93
2023-02-12T23:15:30.597Z,43.63
2023-02-12T23:17:57.916Z,49.73
2023-02-12T23:20:25.025Z,46.83
2023-02-12T23:22:52.231Z,58.23
2023-02-12T23:25:19.380Z,56.67
2023-02-12T23:27:46.454Z,52.23
2023-02-12T23:30:13.830Z,54.60
2023-02-12T23:32:40.973Z,47.40
2023-02-12T23:35:08.187Z,50.80
2023-02-12T23:37:35.317Z,44.27
2023-02-12T23:40:02.466Z,47.17
2023-02-12T23:42:29.639Z,50.77
2023-02-12T23:44:57.615Z,50.13
2023-02-12T23:47:24.949Z,50.03
2023-02-12T23:49:52.074Z,50.20
2023-02-12T23:52:19.207Z,49.50
2023-02-12T23:54:46.346Z,52.10
2023-02-12T23:57:13.444Z,60.33
2023-02-12T23:59:40.528Z,54.20
